sensor_id;sensor_type;location;lat;lon;timestamp;P1;durP1;ratioP1;P2;durP2;ratioP2
970;SDS011;28939;45.540;-122.632;2022-07-29T00:01:54;5.97;;;5.63;;
970;SDS011;28939;45.540;-122.632;2022-07-29T00:04:27;5.73;;;5.43;;
970;SDS011;28939;45.540;-122.632;2022-07-29T00:06:58;5.57;;;5.27;;
970;SDS011;28939;45.540;-122.632;2022-07-29T00:09:28;5.10;;;4.70;;
970;SDS011;28939;45.540;-122.632;2022-07-29T00:12:17;5.73;;;5.33;;
970;SDS011;28939;45.540;-122.632;2022-07-29T00:14:53;6.33;;;5.83;;
970;SDS011;28939;45.540;-122.632;2022-07-29T00:17:24;5.87;;;5.47;;
970;SDS011;28939;45.540;-122.632;2022-07-29T00:19:57;6.07;;;5.63;;
970;SDS011;28939;45.540;-122.632;2022-07-29T00:22:27;5.20;;;4.90;;
970;SDS011;28939;45.540;-122.632;2022-07-29T00:24:58;5.73;;;5.30;;
970;SDS011;28939;45.540;-122.632;2022-07-29T00:27:30;5.90;;;5.50;;
970;SDS011;28939;45.540;-122.632;2022-07-29T00:30:04;6.07;;;5.60;;
970;SDS011;28939;45.540;-122.632;2022-07-29T00:32:36;6.20;;;5.80;;
970;SDS011;28939;45.540;-122.632;2022-07-29T00:35:10;5.10;;;4.80;;
970;SDS011;28939;45.540;-122.632;2022-07-29T00:37:59;5.83;;;5.43;;
970;SDS011;28939;45.540;-122.632;2022-07-29T00:40:30;5.77;;;5.37;;
970;SDS011;28939;45.540;-122.632;2022-07-29T00:43:00;5.80;;;5.40;;
970;SDS011;28939;45.540;-122.632;2022-07-29T00:45:31;5.90;;;5.50;;
970;SDS011;28939;45.540;-122.632;2022-07-29T00:48:02;5.30;;;4.90;;
970;SDS011;28939;45.540;-122.632;2022-07-29T00:50:37;6.30;;;5.90;;
970;SDS011;28939;45.540;-122.632;2022-07-29T00:53:09;6.10;;;5.60;;
970;SDS011;28939;45.540;-122.632;2022-07-29T00:55:42;6.53;;;6.03;;
970;SDS011;28939;45.540;-122.632;2022-07-29T00:58:12;5.33;;;5.03;;
970;SDS011;28939;45.540;-122.632;2022-07-29T01:00:43;5.93;;;5.53;;
970;SDS011;28939;45.540;-122.632;2022-07-29T01:03:14;6.47;;;5.87;;
970;SDS011;28939;45.540;-122.632;2022-07-29T01:05:46;6.67;;;6.17;;
970;SDS011;28939;45.540;-122.632;2022-07-29T01:08:17;6.43;;;5.93;;
970;SDS011;28939;45.540;-122.632;2022-07-29T01:10:49;6.40;;;6.00;;
970;SDS011;28939;45.540;-122.632;2022-07-29T01:13:22;5.97;;;5.60;;
970;SDS011;28939;45.540;-122.632;2022-07-29T01:15:54;6.23;;;5.80;;
970;SDS011;28939;45.540;-122.632;2022-07-29T01:18:30;5.70;;;5.30;;
970;SDS011;28939;45.540;-122.632;2022-07-29T01:21:13;6.43;;;6.00;;
970;SDS011;28939;45.540;-122.632;2022-07-29T01:24:11;5.83;;;5.47;;
970;SDS011;28939;45.540;-122.632;2022-07-29T01:26:59;6.23;;;5.83;;
970;SDS011;28939;45.540;-122.632;2022-07-29T01:29:46;5.83;;;5.43;;
970;SDS011;28939;45.540;-122.632;2022-07-29T01:32:21;6.13;;;5.73;;
970;SDS011;28939;45.540;-122.632;2022-07-29T01:34:57;6.70;;;6.30;;
970;SDS011;28939;45.540;-122.632;2022-07-29T01:37:33;5.93;;;5.53;;
970;SDS011;28939;45.540;-122.632;2022-07-29T01:40:09;5.80;;;5.50;;
970;SDS011;28939;45.540;-122.632;2022-07-29T01:42:49;6.50;;;6.00;;
970;SDS011;28939;45.540;-122.632;2022-07-29T01:45:24;6.50;;;6.10;;
970;SDS011;28939;45.540;-122.632;2022-07-29T01:48:00;6.20;;;5.80;;
970;SDS011;28939;45.540;-122.632;2022-07-29T01:50:34;6.07;;;5.67;;
970;SDS011;28939;45.540;-122.632;2022-07-29T01:53:16;6.67;;;6.17;;
970;SDS011;28939;45.540;-122.632;2022-07-29T01:56:03;6.20;;;5.80;;
970;SDS011;28939;45.540;-122.632;2022-07-29T01:58:35;5.93;;;5.53;;
970;SDS011;28939;45.540;-122.632;2022-07-29T02:01:11;6.20;;;5.80;;
970;SDS011;28939;45.540;-122.632;2022-07-29T02:03:44;6.20;;;5.80;;
970;SDS011;28939;45.540;-122.632;2022-07-29T02:06:17;6.50;;;6.00;;
970;SDS011;28939;45.540;-122.632;2022-07-29T02:08:51;7.00;;;6.50;;
970;SDS011;28939;45.540;-122.632;2022-07-29T02:11:23;6.53;;;6.03;;
970;SDS011;28939;45.540;-122.632;2022-07-29T02:13:55;5.77;;;5.37;;
970;SDS011;28939;45.540;-122.632;2022-07-29T02:16:30;5.70;;;5.30;;
970;SDS011;28939;45.540;-122.632;2022-07-29T02:19:02;5.40;;;5.10;;
970;SDS011;28939;45.540;-122.632;2022-07-29T02:21:36;5.90;;;5.50;;
970;SDS011;28939;45.540;-122.632;2022-07-29T02:24:08;6.30;;;5.90;;
970;SDS011;28939;45.540;-122.632;2022-07-29T02:26:42;6.00;;;5.60;;
970;SDS011;28939;45.540;-122.632;2022-07-29T02:29:13;6.13;;;5.57;;
970;SDS011;28939;45.540;-122.632;2022-07-29T02:31:47;6.30;;;5.90;;
970;SDS011;28939;45.540;-122.632;2022-07-29T02:34:20;6.33;;;5.87;;
970;SDS011;28939;45.540;-122.632;2022-07-29T02:36:52;7.03;;;6.53;;
970;SDS011;28939;45.540;-122.632;2022-07-29T02:39:25;6.00;;;5.60;;
970;SDS011;28939;45.540;-122.632;2022-07-29T02:41:59;6.27;;;5.77;;
970;SDS011;28939;45.540;-122.632;2022-07-29T02:44:33;6.60;;;6.10;;
970;SDS011;28939;45.540;-122.632;2022-07-29T02:47:10;6.67;;;6.07;;
970;SDS011;28939;45.540;-122.632;2022-07-29T02:49:48;6.60;;;6.20;;
970;SDS011;28939;45.540;-122.632;2022-07-29T02:52:27;6.03;;;5.63;;
970;SDS011;28939;45.540;-122.632;2022-07-29T02:55:15;6.70;;;6.13;;
970;SDS011;28939;45.540;-122.632;2022-07-29T02:57:49;6.40;;;5.97;;
970;SDS011;28939;45.540;-122.632;2022-07-29T03:00:26;6.17;;;5.67;;
970;SDS011;28939;45.540;-122.632;2022-07-29T03:03:00;6.00;;;5.60;;
970;SDS011;28939;45.540;-122.632;2022-07-29T03:05:36;5.87;;;5.47;;
970;SDS011;28939;45.540;-122.632;2022-07-29T03:08:09;6.60;;;6.10;;
970;SDS011;28939;45.540;-122.632;2022-07-29T03:10:43;5.93;;;5.53;;
970;SDS011;28939;45.540;-122.632;2022-07-29T03:13:14;6.07;;;5.67;;
970;SDS011;28939;45.540;-122.632;2022-07-29T03:15:46;6.83;;;6.23;;
970;SDS011;28939;45.540;-122.632;2022-07-29T03:18:19;5.43;;;5.07;;
970;SDS011;28939;45.540;-122.632;2022-07-29T03:20:51;5.60;;;5.20;;
970;SDS011;28939;45.540;-122.632;2022-07-29T03:23:22;5.83;;;5.43;;
970;SDS011;28939;45.540;-122.632;2022-07-29T03:26:02;5.97;;;5.47;;
970;SDS011;28939;45.540;-122.632;2022-07-29T03:28:33;5.90;;;5.50;;
970;SDS011;28939;45.540;-122.632;2022-07-29T03:31:05;6.63;;;6.10;;
970;SDS011;28939;45.540;-122.632;2022-07-29T03:33:38;5.23;;;4.83;;
970;SDS011;28939;45.540;-122.632;2022-07-29T03:36:08;6.60;;;6.10;;
970;SDS011;28939;45.540;-122.632;2022-07-29T03:38:39;6.00;;;5.60;;
970;SDS011;28939;45.540;-122.632;2022-07-29T03:41:11;6.00;;;5.50;;
970;SDS011;28939;45.540;-122.632;2022-07-29T03:43:48;6.03;;;5.63;;
970;SDS011;28939;45.540;-122.632;2022-07-29T03:46:21;5.40;;;5.00;;
970;SDS011;28939;45.540;-122.632;2022-07-29T03:48:55;5.40;;;5.00;;
970;SDS011;28939;45.540;-122.632;2022-07-29T03:51:29;7.90;;;5.90;;
970;SDS011;28939;45.540;-122.632;2022-07-29T03:54:01;5.73;;;5.10;;
970;SDS011;28939;45.540;-122.632;2022-07-29T03:56:37;5.50;;;5.10;;
970;SDS011;28939;45.540;-122.632;2022-07-29T03:59:09;5.83;;;5.43;;
970;SDS011;28939;45.540;-122.632;2022-07-29T04:01:44;5.87;;;5.37;;
970;SDS011;28939;45.540;-122.632;2022-07-29T04:04:17;5.13;;;4.73;;
970;SDS011;28939;45.540;-122.632;2022-07-29T04:06:48;5.80;;;5.30;;
970;SDS011;28939;45.540;-122.632;2022-07-29T04:09:18;5.50;;;5.10;;
970;SDS011;28939;45.540;-122.632;2022-07-29T04:11:49;5.33;;;4.93;;
970;SDS011;28939;45.540;-122.632;2022-07-29T04:14:29;5.53;;;5.07;;
970;SDS011;28939;45.540;-122.632;2022-07-29T04:17:00;5.33;;;4.90;;
970;SDS011;28939;45.540;-122.632;2022-07-29T04:19:34;4.50;;;4.20;;
970;SDS011;28939;45.540;-122.632;2022-07-29T04:22:05;4.70;;;4.40;;
970;SDS011;28939;45.540;-122.632;2022-07-29T04:24:36;4.70;;;4.40;;
970;SDS011;28939;45.540;-122.632;2022-07-29T04:27:10;4.53;;;4.23;;
970;SDS011;28939;45.540;-122.632;2022-07-29T04:29:41;4.57;;;4.27;;
970;SDS011;28939;45.540;-122.632;2022-07-29T04:32:23;4.80;;;4.50;;
970;SDS011;28939;45.540;-122.632;2022-07-29T04:34:55;4.70;;;4.30;;
970;SDS011;28939;45.540;-122.632;2022-07-29T04:37:26;4.70;;;4.40;;
970;SDS011;28939;45.540;-122.632;2022-07-29T04:39:57;4.53;;;4.20;;
970;SDS011;28939;45.540;-122.632;2022-07-29T04:42:28;4.60;;;4.20;;
970;SDS011;28939;45.540;-122.632;2022-07-29T04:44:58;5.07;;;4.77;;
970;SDS011;28939;45.540;-122.632;2022-07-29T04:47:33;5.17;;;4.77;;
970;SDS011;28939;45.540;-122.632;2022-07-29T04:50:06;4.37;;;4.07;;
970;SDS011;28939;45.540;-122.632;2022-07-29T04:52:37;4.73;;;4.43;;
970;SDS011;28939;45.540;-122.632;2022-07-29T04:55:09;5.10;;;4.70;;
970;SDS011;28939;45.540;-122.632;2022-07-29T04:57:40;5.27;;;4.87;;
970;SDS011;28939;45.540;-122.632;2022-07-29T05:00:11;4.40;;;4.10;;
970;SDS011;28939;45.540;-122.632;2022-07-29T05:02:43;4.27;;;3.97;;
970;SDS011;28939;45.540;-122.632;2022-07-29T05:05:15;5.20;;;4.80;;
970;SDS011;28939;45.540;-122.632;2022-07-29T05:07:46;4.70;;;4.30;;
970;SDS011;28939;45.540;-122.632;2022-07-29T05:10:17;4.90;;;4.50;;
970;SDS011;28939;45.540;-122.632;2022-07-29T05:12:48;4.77;;;4.43;;
970;SDS011;28939;45.540;-122.632;2022-07-29T05:15:19;4.47;;;4.10;;
970;SDS011;28939;45.540;-122.632;2022-07-29T05:17:50;4.20;;;3.90;;
970;SDS011;28939;45.540;-122.632;2022-07-29T05:20:23;5.27;;;4.77;;
970;SDS011;28939;45.540;-122.632;2022-07-29T05:22:56;4.43;;;4.13;;
970;SDS011;28939;45.540;-122.632;2022-07-29T05:25:27;4.60;;;4.30;;
970;SDS011;28939;45.540;-122.632;2022-07-29T05:28:10;4.73;;;4.33;;
970;SDS011;28939;45.540;-122.632;2022-07-29T05:30:41;4.30;;;4.00;;
970;SDS011;28939;45.540;-122.632;2022-07-29T05:33:12;4.10;;;3.70;;
970;SDS011;28939;45.540;-122.632;2022-07-29T05:36:04;3.90;;;3.60;;
970;SDS011;28939;45.540;-122.632;2022-07-29T05:38:35;3.50;;;3.30;;
970;SDS011;28939;45.540;-122.632;2022-07-29T05:41:06;3.67;;;3.47;;
970;SDS011;28939;45.540;-122.632;2022-07-29T05:43:37;4.30;;;3.90;;
970;SDS011;28939;45.540;-122.632;2022-07-29T05:46:08;4.20;;;3.90;;
970;SDS011;28939;45.540;-122.632;2022-07-29T05:48:39;3.67;;;3.37;;
970;SDS011;28939;45.540;-122.632;2022-07-29T05:51:11;4.03;;;3.73;;
970;SDS011;28939;45.540;-122.632;2022-07-29T05:53:42;4.20;;;3.80;;
970;SDS011;28939;45.540;-122.632;2022-07-29T05:56:13;4.03;;;3.73;;
970;SDS011;28939;45.540;-122.632;2022-07-29T05:58:44;3.83;;;3.57;;
970;SDS011;28939;45.540;-122.632;2022-07-29T06:01:14;3.83;;;3.53;;
970;SDS011;28939;45.540;-122.632;2022-07-29T06:03:45;3.20;;;3.00;;
970;SDS011;28939;45.540;-122.632;2022-07-29T06:06:18;4.50;;;4.10;;
970;SDS011;28939;45.540;-122.632;2022-07-29T06:08:49;3.93;;;3.63;;
970;SDS011;28939;45.540;-122.632;2022-07-29T06:11:19;3.47;;;3.27;;
970;SDS011;28939;45.540;-122.632;2022-07-29T06:13:50;3.90;;;3.60;;
970;SDS011;28939;45.540;-122.632;2022-07-29T06:16:21;3.80;;;3.50;;
970;SDS011;28939;45.540;-122.632;2022-07-29T06:18:56;4.40;;;4.00;;
970;SDS011;28939;45.540;-122.632;2022-07-29T06:21:28;3.73;;;3.50;;
970;SDS011;28939;45.540;-122.632;2022-07-29T06:23:59;3.80;;;3.50;;
970;SDS011;28939;45.540;-122.632;2022-07-29T06:26:29;3.80;;;3.40;;
970;SDS011;28939;45.540;-122.632;2022-07-29T06:29:05;3.67;;;3.27;;
970;SDS011;28939;45.540;-122.632;2022-07-29T06:31:36;3.77;;;3.23;;
970;SDS011;28939;45.540;-122.632;2022-07-29T06:34:08;3.77;;;3.47;;
970;SDS011;28939;45.540;-122.632;2022-07-29T06:36:41;3.50;;;3.20;;
970;SDS011;28939;45.540;-122.632;2022-07-29T06:39:12;3.47;;;3.17;;
970;SDS011;28939;45.540;-122.632;2022-07-29T06:41:46;4.07;;;3.77;;
970;SDS011;28939;45.540;-122.632;2022-07-29T06:44:18;4.17;;;3.87;;
970;SDS011;28939;45.540;-122.632;2022-07-29T06:46:48;3.70;;;3.40;;
970;SDS011;28939;45.540;-122.632;2022-07-29T06:49:20;3.57;;;3.30;;
970;SDS011;28939;45.540;-122.632;2022-07-29T06:51:53;4.17;;;3.50;;
970;SDS011;28939;45.540;-122.632;2022-07-29T06:54:24;3.60;;;3.30;;
970;SDS011;28939;45.540;-122.632;2022-07-29T06:56:55;4.10;;;3.47;;
970;SDS011;28939;45.540;-122.632;2022-07-29T06:59:26;3.77;;;3.47;;
970;SDS011;28939;45.540;-122.632;2022-07-29T07:02:01;3.90;;;3.47;;
970;SDS011;28939;45.540;-122.632;2022-07-29T07:04:32;3.80;;;3.50;;
970;SDS011;28939;45.540;-122.632;2022-07-29T07:07:05;2.97;;;2.77;;
970;SDS011;28939;45.540;-122.632;2022-07-29T07:09:35;3.27;;;3.07;;
970;SDS011;28939;45.540;-122.632;2022-07-29T07:12:07;2.97;;;2.77;;
970;SDS011;28939;45.540;-122.632;2022-07-29T07:14:39;3.57;;;3.33;;
970;SDS011;28939;45.540;-122.632;2022-07-29T07:17:09;3.70;;;3.40;;
970;SDS011;28939;45.540;-122.632;2022-07-29T07:19:40;2.93;;;2.73;;
970;SDS011;28939;45.540;-122.632;2022-07-29T07:22:14;3.93;;;3.63;;
970;SDS011;28939;45.540;-122.632;2022-07-29T07:24:45;2.87;;;2.67;;
970;SDS011;28939;45.540;-122.632;2022-07-29T07:27:15;4.50;;;3.50;;
970;SDS011;28939;45.540;-122.632;2022-07-29T07:29:46;3.60;;;3.33;;
970;SDS011;28939;45.540;-122.632;2022-07-29T07:32:17;3.37;;;3.17;;
970;SDS011;28939;45.540;-122.632;2022-07-29T07:34:48;3.50;;;3.20;;
970;SDS011;28939;45.540;-122.632;2022-07-29T07:37:20;4.63;;;3.47;;
970;SDS011;28939;45.540;-122.632;2022-07-29T07:39:52;2.70;;;2.50;;
970;SDS011;28939;45.540;-122.632;2022-07-29T07:42:23;3.60;;;3.30;;
970;SDS011;28939;45.540;-122.632;2022-07-29T07:44:54;3.60;;;3.30;;
970;SDS011;28939;45.540;-122.632;2022-07-29T07:47:39;3.70;;;3.40;;
970;SDS011;28939;45.540;-122.632;2022-07-29T07:50:11;4.07;;;3.70;;
970;SDS011;28939;45.540;-122.632;2022-07-29T07:52:50;3.70;;;3.40;;
970;SDS011;28939;45.540;-122.632;2022-07-29T07:55:22;3.60;;;3.30;;
970;SDS011;28939;45.540;-122.632;2022-07-29T07:57:53;3.60;;;3.30;;
970;SDS011;28939;45.540;-122.632;2022-07-29T08:00:24;4.33;;;4.00;;
970;SDS011;28939;45.540;-122.632;2022-07-29T08:02:55;4.07;;;3.77;;
970;SDS011;28939;45.540;-122.632;2022-07-29T08:05:26;4.33;;;3.93;;
970;SDS011;28939;45.540;-122.632;2022-07-29T08:07:58;3.33;;;3.13;;
970;SDS011;28939;45.540;-122.632;2022-07-29T08:10:29;3.60;;;3.30;;
970;SDS011;28939;45.540;-122.632;2022-07-29T08:13:16;4.00;;;3.60;;
970;SDS011;28939;45.540;-122.632;2022-07-29T08:15:48;3.63;;;3.40;;
970;SDS011;28939;45.540;-122.632;2022-07-29T08:18:25;4.63;;;4.10;;
970;SDS011;28939;45.540;-122.632;2022-07-29T08:20:56;3.57;;;3.30;;
970;SDS011;28939;45.540;-122.632;2022-07-29T08:23:29;4.00;;;3.70;;
970;SDS011;28939;45.540;-122.632;2022-07-29T08:26:13;4.93;;;4.07;;
970;SDS011;28939;45.540;-122.632;2022-07-29T08:28:44;4.43;;;4.03;;
970;SDS011;28939;45.540;-122.632;2022-07-29T08:31:17;3.53;;;3.23;;
970;SDS011;28939;45.540;-122.632;2022-07-29T08:33:48;4.07;;;3.77;;
970;SDS011;28939;45.540;-122.632;2022-07-29T08:36:19;4.33;;;3.27;;
970;SDS011;28939;45.540;-122.632;2022-07-29T08:38:51;3.80;;;3.50;;
970;SDS011;28939;45.540;-122.632;2022-07-29T08:41:22;4.70;;;4.20;;
970;SDS011;28939;45.540;-122.632;2022-07-29T08:43:54;3.90;;;3.60;;
970;SDS011;28939;45.540;-122.632;2022-07-29T08:46:24;3.97;;;3.67;;
970;SDS011;28939;45.540;-122.632;2022-07-29T08:48:55;3.93;;;3.57;;
970;SDS011;28939;45.540;-122.632;2022-07-29T08:51:26;4.07;;;3.67;;
970;SDS011;28939;45.540;-122.632;2022-07-29T08:53:59;4.13;;;3.83;;
970;SDS011;28939;45.540;-122.632;2022-07-29T08:56:30;3.17;;;2.97;;
970;SDS011;28939;45.540;-122.632;2022-07-29T08:59:02;4.33;;;3.93;;
970;SDS011;28939;45.540;-122.632;2022-07-29T09:01:37;3.43;;;3.23;;
970;SDS011;28939;45.540;-122.632;2022-07-29T09:04:16;3.80;;;3.50;;
970;SDS011;28939;45.540;-122.632;2022-07-29T09:06:49;3.53;;;3.23;;
970;SDS011;28939;45.540;-122.632;2022-07-29T09:09:24;3.77;;;3.40;;
970;SDS011;28939;45.540;-122.632;2022-07-29T09:11:55;3.73;;;3.43;;
970;SDS011;28939;45.540;-122.632;2022-07-29T09:14:28;4.57;;;4.17;;
970;SDS011;28939;45.540;-122.632;2022-07-29T09:16:58;3.60;;;3.20;;
970;SDS011;28939;45.540;-122.632;2022-07-29T09:19:31;4.60;;;4.20;;
970;SDS011;28939;45.540;-122.632;2022-07-29T09:22:03;3.80;;;3.50;;
970;SDS011;28939;45.540;-122.632;2022-07-29T09:24:40;3.87;;;3.57;;
970;SDS011;28939;45.540;-122.632;2022-07-29T09:27:21;3.90;;;3.60;;
970;SDS011;28939;45.540;-122.632;2022-07-29T09:29:57;3.60;;;3.40;;
970;SDS011;28939;45.540;-122.632;2022-07-29T09:32:29;4.47;;;4.07;;
970;SDS011;28939;45.540;-122.632;2022-07-29T09:35:16;3.87;;;3.47;;
970;SDS011;28939;45.540;-122.632;2022-07-29T09:37:47;5.03;;;4.63;;
970;SDS011;28939;45.540;-122.632;2022-07-29T09:40:21;3.80;;;3.50;;
970;SDS011;28939;45.540;-122.632;2022-07-29T09:42:53;4.10;;;3.80;;
970;SDS011;28939;45.540;-122.632;2022-07-29T09:45:28;4.10;;;3.80;;
970;SDS011;28939;45.540;-122.632;2022-07-29T09:48:00;3.87;;;3.57;;
970;SDS011;28939;45.540;-122.632;2022-07-29T09:50:44;4.07;;;3.67;;
970;SDS011;28939;45.540;-122.632;2022-07-29T09:53:29;3.93;;;3.60;;
970;SDS011;28939;45.540;-122.632;2022-07-29T09:56:03;3.87;;;3.57;;
970;SDS011;28939;45.540;-122.632;2022-07-29T09:58:35;4.73;;;4.33;;
970;SDS011;28939;45.540;-122.632;2022-07-29T10:01:06;4.43;;;3.80;;
970;SDS011;28939;45.540;-122.632;2022-07-29T10:03:50;4.80;;;4.40;;
970;SDS011;28939;45.540;-122.632;2022-07-29T10:06:21;4.23;;;3.93;;
970;SDS011;28939;45.540;-122.632;2022-07-29T10:08:52;4.40;;;3.47;;
970;SDS011;28939;45.540;-122.632;2022-07-29T10:11:25;4.20;;;3.80;;
970;SDS011;28939;45.540;-122.632;2022-07-29T10:14:15;3.47;;;3.23;;
970;SDS011;28939;45.540;-122.632;2022-07-29T10:16:46;4.23;;;3.83;;
970;SDS011;28939;45.540;-122.632;2022-07-29T10:19:17;4.27;;;3.97;;
970;SDS011;28939;45.540;-122.632;2022-07-29T10:21:48;3.77;;;3.47;;
970;SDS011;28939;45.540;-122.632;2022-07-29T10:24:24;6.43;;;4.60;;
970;SDS011;28939;45.540;-122.632;2022-07-29T10:26:57;4.30;;;4.00;;
970;SDS011;28939;45.540;-122.632;2022-07-29T10:29:30;4.77;;;4.17;;
970;SDS011;28939;45.540;-122.632;2022-07-29T10:32:13;4.33;;;4.00;;
970;SDS011;28939;45.540;-122.632;2022-07-29T10:34:56;4.37;;;3.97;;
970;SDS011;28939;45.540;-122.632;2022-07-29T10:37:40;4.20;;;3.80;;
970;SDS011;28939;45.540;-122.632;2022-07-29T10:40:24;4.20;;;3.90;;
970;SDS011;28939;45.540;-122.632;2022-07-29T10:43:25;3.43;;;3.13;;
970;SDS011;28939;45.540;-122.632;2022-07-29T10:46:00;4.77;;;4.37;;
970;SDS011;28939;45.540;-122.632;2022-07-29T10:48:33;4.40;;;4.10;;
970;SDS011;28939;45.540;-122.632;2022-07-29T10:51:07;4.27;;;3.73;;
970;SDS011;28939;45.540;-122.632;2022-07-29T10:53:48;4.30;;;3.90;;
970;SDS011;28939;45.540;-122.632;2022-07-29T10:56:24;3.70;;;3.40;;
970;SDS011;28939;45.540;-122.632;2022-07-29T11:02:02;4.13;;;3.83;;
970;SDS011;28939;45.540;-122.632;2022-07-29T11:05:16;4.30;;;3.90;;
970;SDS011;28939;45.540;-122.632;2022-07-29T11:14:03;5.20;;;4.20;;
970;SDS011;28939;45.540;-122.632;2022-07-29T11:17:02;4.40;;;4.00;;
970;SDS011;28939;45.540;-122.632;2022-07-29T11:19:39;4.33;;;4.03;;
970;SDS011;28939;45.540;-122.632;2022-07-29T11:22:31;4.50;;;4.10;;
970;SDS011;28939;45.540;-122.632;2022-07-29T11:25:14;5.33;;;3.60;;
970;SDS011;28939;45.540;-122.632;2022-07-29T11:28:08;4.00;;;3.70;;
970;SDS011;28939;45.540;-122.632;2022-07-29T11:30:49;4.33;;;3.93;;
970;SDS011;28939;45.540;-122.632;2022-07-29T11:33:29;4.37;;;3.97;;
970;SDS011;28939;45.540;-122.632;2022-07-29T11:36:21;4.40;;;4.00;;
970;SDS011;28939;45.540;-122.632;2022-07-29T11:39:06;4.03;;;3.73;;
970;SDS011;28939;45.540;-122.632;2022-07-29T11:45:10;4.90;;;3.80;;
970;SDS011;28939;45.540;-122.632;2022-07-29T11:48:03;3.80;;;3.50;;
970;SDS011;28939;45.540;-122.632;2022-07-29T11:50:56;4.37;;;3.83;;
970;SDS011;28939;45.540;-122.632;2022-07-29T11:53:26;4.67;;;4.27;;
970;SDS011;28939;45.540;-122.632;2022-07-29T11:55:59;4.10;;;3.70;;
970;SDS011;28939;45.540;-122.632;2022-07-29T11:58:30;4.20;;;3.80;;
970;SDS011;28939;45.540;-122.632;2022-07-29T12:01:03;4.80;;;4.30;;
970;SDS011;28939;45.540;-122.632;2022-07-29T12:03:34;4.50;;;4.10;;
970;SDS011;28939;45.540;-122.632;2022-07-29T12:06:12;4.07;;;3.70;;
970;SDS011;28939;45.540;-122.632;2022-07-29T12:08:46;4.63;;;4.23;;
970;SDS011;28939;45.540;-122.632;2022-07-29T12:11:18;4.20;;;3.80;;
970;SDS011;28939;45.540;-122.632;2022-07-29T12:13:49;4.00;;;3.70;;
970;SDS011;28939;45.540;-122.632;2022-07-29T12:16:21;4.03;;;3.73;;
970;SDS011;28939;45.540;-122.632;2022-07-29T12:18:58;4.40;;;3.80;;
970;SDS011;28939;45.540;-122.632;2022-07-29T12:21:44;5.90;;;3.47;;
970;SDS011;28939;45.540;-122.632;2022-07-29T12:24:23;4.30;;;3.90;;
970;SDS011;28939;45.540;-122.632;2022-07-29T12:26:55;4.20;;;3.63;;
970;SDS011;28939;45.540;-122.632;2022-07-29T12:29:28;4.20;;;3.50;;
970;SDS011;28939;45.540;-122.632;2022-07-29T12:32:01;3.43;;;3.13;;
970;SDS011;28939;45.540;-122.632;2022-07-29T12:34:45;4.17;;;3.77;;
970;SDS011;28939;45.540;-122.632;2022-07-29T12:37:18;4.17;;;3.77;;
970;SDS011;28939;45.540;-122.632;2022-07-29T12:40:07;5.63;;;4.70;;
970;SDS011;28939;45.540;-122.632;2022-07-29T12:42:40;6.43;;;4.70;;
970;SDS011;28939;45.540;-122.632;2022-07-29T12:45:11;5.60;;;5.00;;
970;SDS011;28939;45.540;-122.632;2022-07-29T12:47:53;4.57;;;4.00;;
970;SDS011;28939;45.540;-122.632;2022-07-29T12:50:23;3.90;;;3.60;;
970;SDS011;28939;45.540;-122.632;2022-07-29T12:53:03;4.10;;;3.70;;
970;SDS011;28939;45.540;-122.632;2022-07-29T12:55:42;3.70;;;3.40;;
970;SDS011;28939;45.540;-122.632;2022-07-29T12:58:25;3.80;;;3.50;;
970;SDS011;28939;45.540;-122.632;2022-07-29T13:01:03;4.17;;;3.77;;
970;SDS011;28939;45.540;-122.632;2022-07-29T13:03:47;3.40;;;3.10;;
970;SDS011;28939;45.540;-122.632;2022-07-29T13:06:34;7.60;;;3.60;;
970;SDS011;28939;45.540;-122.632;2022-07-29T13:09:11;4.67;;;3.80;;
970;SDS011;28939;45.540;-122.632;2022-07-29T13:11:43;3.57;;;3.27;;
970;SDS011;28939;45.540;-122.632;2022-07-29T13:14:29;3.47;;;3.17;;
970;SDS011;28939;45.540;-122.632;2022-07-29T13:17:03;3.80;;;2.87;;
970;SDS011;28939;45.540;-122.632;2022-07-29T13:19:35;4.20;;;3.80;;
970;SDS011;28939;45.540;-122.632;2022-07-29T13:22:08;4.67;;;4.27;;
970;SDS011;28939;45.540;-122.632;2022-07-29T13:24:47;3.67;;;3.37;;
970;SDS011;28939;45.540;-122.632;2022-07-29T13:27:19;3.83;;;3.20;;
970;SDS011;28939;45.540;-122.632;2022-07-29T13:29:51;4.17;;;3.10;;
970;SDS011;28939;45.540;-122.632;2022-07-29T13:32:24;3.50;;;3.20;;
970;SDS011;28939;45.540;-122.632;2022-07-29T13:34:55;4.77;;;4.37;;
970;SDS011;28939;45.540;-122.632;2022-07-29T13:37:31;4.03;;;3.60;;
970;SDS011;28939;45.540;-122.632;2022-07-29T13:40:04;4.77;;;3.67;;
970;SDS011;28939;45.540;-122.632;2022-07-29T13:42:36;3.70;;;3.40;;
970;SDS011;28939;45.540;-122.632;2022-07-29T13:45:07;2.87;;;2.67;;
970;SDS011;28939;45.540;-122.632;2022-07-29T13:47:39;3.00;;;2.80;;
970;SDS011;28939;45.540;-122.632;2022-07-29T13:50:15;3.57;;;3.20;;
970;SDS011;28939;45.540;-122.632;2022-07-29T13:52:46;3.43;;;3.10;;
970;SDS011;28939;45.540;-122.632;2022-07-29T13:55:19;3.30;;;3.00;;
970;SDS011;28939;45.540;-122.632;2022-07-29T13:57:50;3.87;;;3.47;;
970;SDS011;28939;45.540;-122.632;2022-07-29T14:00:21;4.87;;;3.30;;
970;SDS011;28939;45.540;-122.632;2022-07-29T14:02:53;4.07;;;3.10;;
970;SDS011;28939;45.540;-122.632;2022-07-29T14:05:24;3.43;;;3.13;;
970;SDS011;28939;45.540;-122.632;2022-07-29T14:07:55;3.87;;;2.93;;
970;SDS011;28939;45.540;-122.632;2022-07-29T14:10:27;3.30;;;2.90;;
970;SDS011;28939;45.540;-122.632;2022-07-29T14:12:58;2.77;;;2.57;;
970;SDS011;28939;45.540;-122.632;2022-07-29T14:15:29;3.00;;;2.70;;
970;SDS011;28939;45.540;-122.632;2022-07-29T14:18:05;3.53;;;3.23;;
970;SDS011;28939;45.540;-122.632;2022-07-29T14:20:36;3.13;;;2.83;;
970;SDS011;28939;45.540;-122.632;2022-07-29T14:23:06;2.97;;;2.77;;
970;SDS011;28939;45.540;-122.632;2022-07-29T14:25:41;3.07;;;2.87;;
970;SDS011;28939;45.540;-122.632;2022-07-29T14:28:15;2.93;;;2.63;;
970;SDS011;28939;45.540;-122.632;2022-07-29T14:30:46;4.13;;;3.73;;
970;SDS011;28939;45.540;-122.632;2022-07-29T14:33:16;3.97;;;3.60;;
970;SDS011;28939;45.540;-122.632;2022-07-29T14:35:47;3.20;;;2.90;;
970;SDS011;28939;45.540;-122.632;2022-07-29T14:38:18;3.67;;;2.83;;
970;SDS011;28939;45.540;-122.632;2022-07-29T14:40:54;2.93;;;2.57;;
970;SDS011;28939;45.540;-122.632;2022-07-29T14:43:25;3.70;;;3.40;;
970;SDS011;28939;45.540;-122.632;2022-07-29T14:45:55;3.37;;;3.07;;
970;SDS011;28939;45.540;-122.632;2022-07-29T14:48:33;3.03;;;2.83;;
970;SDS011;28939;45.540;-122.632;2022-07-29T14:51:04;3.10;;;2.73;;
970;SDS011;28939;45.540;-122.632;2022-07-29T14:53:35;3.10;;;2.80;;
970;SDS011;28939;45.540;-122.632;2022-07-29T14:56:07;3.10;;;2.87;;
970;SDS011;28939;45.540;-122.632;2022-07-29T14:58:58;2.80;;;2.50;;
970;SDS011;28939;45.540;-122.632;2022-07-29T15:01:29;2.80;;;2.60;;
970;SDS011;28939;45.540;-122.632;2022-07-29T15:04:00;2.87;;;2.67;;
970;SDS011;28939;45.540;-122.632;2022-07-29T15:06:31;2.90;;;2.70;;
970;SDS011;28939;45.540;-122.632;2022-07-29T15:09:02;2.77;;;2.57;;
970;SDS011;28939;45.540;-122.632;2022-07-29T15:11:34;3.57;;;3.27;;
970;SDS011;28939;45.540;-122.632;2022-07-29T15:14:05;2.50;;;2.40;;
970;SDS011;28939;45.540;-122.632;2022-07-29T15:16:36;2.80;;;2.60;;
970;SDS011;28939;45.540;-122.632;2022-07-29T15:19:09;2.67;;;2.47;;
970;SDS011;28939;45.540;-122.632;2022-07-29T15:21:40;3.00;;;2.63;;
970;SDS011;28939;45.540;-122.632;2022-07-29T15:24:25;2.80;;;2.60;;
970;SDS011;28939;45.540;-122.632;2022-07-29T15:26:58;2.77;;;2.57;;
970;SDS011;28939;45.540;-122.632;2022-07-29T15:29:28;2.50;;;2.40;;